createdAt,value
2022-09-28T00:00:00.226Z,97
2022-09-28T00:05:00.185Z,98
2022-09-28T00:10:00.217Z,98
2022-09-28T00:15:00.155Z,98
2022-09-28T00:20:00.194Z,98
2022-09-28T00:25:00.156Z,98
2022-09-28T00:30:00.225Z,98
2022-09-28T00:35:00.187Z,98
2022-09-28T00:40:00.197Z,98
2022-09-28T00:45:00.153Z,98
2022-09-28T00:50:00.182Z,99
2022-09-28T00:55:00.171Z,99
2022-09-28T01:00:00.208Z,99
2022-09-28T01:05:00.177Z,99
2022-09-28T01:10:00.184Z,99
2022-09-28T01:15:00.145Z,99
2022-09-28T01:20:00.192Z,99
2022-09-28T01:25:00.168Z,99
2022-09-28T01:30:00.173Z,99
2022-09-28T01:35:00.151Z,99
2022-09-28T01:40:00.165Z,99
2022-09-28T01:45:00.159Z,99
2022-09-28T01:50:00.162Z,99
2022-09-28T01:55:00.170Z,99
2022-09-28T02:00:00.213Z,99
2022-09-28T02:05:00.160Z,99
2022-09-28T02:10:00.181Z,99
2022-09-28T02:15:00.182Z,99
2022-09-28T02:20:00.178Z,99
2022-09-28T02:25:00.170Z,99
2022-09-28T02:30:00.169Z,99
2022-09-28T02:35:00.170Z,99
2022-09-28T02:40:00.171Z,99
2022-09-28T02:45:00.172Z,99
2022-09-28T02:50:00.158Z,99
2022-09-28T02:55:00.180Z,99
2022-09-28T03:00:00.256Z,99
2022-09-28T03:05:00.167Z,99
2022-09-28T03:10:00.193Z,99
2022-09-28T03:15:00.190Z,99
2022-09-28T03:20:00.175Z,99
2022-09-28T03:25:00.172Z,99
2022-09-28T03:30:00.218Z,99
2022-09-28T03:35:00.207Z,98
2022-09-28T03:40:00.177Z,98
2022-09-28T03:45:00.172Z,98
2022-09-28T03:50:00.240Z,98
2022-09-28T03:55:00.201Z,98
2022-09-28T04:00:00.225Z,98
2022-09-28T04:05:00.189Z,98
2022-09-28T04:10:00.195Z,98
2022-09-28T04:15:00.182Z,98
2022-09-28T04:20:00.184Z,98
2022-09-28T04:25:00.183Z,98
2022-09-28T04:30:00.200Z,98
2022-09-28T04:35:00.172Z,98
2022-09-28T04:40:00.202Z,98
2022-09-28T04:45:00.160Z,98
2022-09-28T04:50:00.223Z,98
2022-09-28T04:55:00.199Z,98
2022-09-28T05:00:00.243Z,98
2022-09-28T05:05:00.183Z,98
2022-09-28T05:10:00.202Z,99
2022-09-28T05:15:00.184Z,99
2022-09-28T05:20:00.193Z,99
2022-09-28T05:25:00.186Z,99
2022-09-28T05:30:00.198Z,99
2022-09-28T05:35:00.172Z,99
2022-09-28T05:40:00.215Z,99
2022-09-28T05:45:00.179Z,99
2022-09-28T05:50:00.184Z,99
2022-09-28T05:55:00.202Z,99
2022-09-28T06:00:00.248Z,99
2022-09-28T06:05:00.182Z,99
2022-09-28T06:10:00.257Z,99
2022-09-28T06:15:00.221Z,99
2022-09-28T06:20:00.185Z,99
2022-09-28T06:25:00.195Z,99
2022-09-28T06:30:00.219Z,99
2022-09-28T06:35:00.197Z,99
2022-09-28T06:40:00.205Z,99
2022-09-28T06:45:00.242Z,99
2022-09-28T06:50:00.209Z,99
2022-09-28T06:55:00.200Z,99
2022-09-28T07:00:00.237Z,99
2022-09-28T07:05:00.233Z,99
2022-09-28T07:10:00.200Z,99
2022-09-28T07:15:00.192Z,99
2022-09-28T07:20:10.971Z,95
2022-09-28T07:25:00.204Z,89
2022-09-28T07:30:00.226Z,85
2022-09-28T07:35:00.213Z,84
2022-09-28T07:40:00.200Z,88
2022-09-28T07:45:00.219Z,86
2022-09-28T07:50:00.221Z,86
2022-09-28T07:55:04.518Z,84
2022-09-28T08:00:00.237Z,84
2022-09-28T08:05:00.210Z,83
2022-09-28T08:10:00.192Z,83
2022-09-28T08:15:00.248Z,82
2022-09-28T08:20:00.193Z,82
2022-09-28T08:25:00.284Z,81
2022-09-28T08:30:00.224Z,80
2022-09-28T08:35:00.211Z,80
2022-09-28T08:40:00.209Z,81
2022-09-28T08:45:00.221Z,80
2022-09-28T08:50:00.399Z,81
2022-09-28T08:55:00.187Z,83
2022-09-28T09:00:00.243Z,83
2022-09-28T09:05:00.224Z,79
2022-09-28T09:10:00.187Z,77
2022-09-28T09:15:00.208Z,76
2022-09-28T09:20:00.208Z,78
2022-09-28T09:25:00.209Z,78
2022-09-28T09:30:00.223Z,78
2022-09-28T09:35:00.200Z,79
2022-09-28T09:40:00.192Z,75
2022-09-28T09:45:00.200Z,78
2022-09-28T09:50:04.064Z,79
2022-09-28T09:55:00.200Z,78
2022-09-28T10:00:00.255Z,77
2022-09-28T10:05:00.191Z,80
2022-09-28T10:10:00.226Z,76
2022-09-28T10:15:00.208Z,72
2022-09-28T10:20:00.239Z,70
2022-09-28T10:25:00.213Z,73
2022-09-28T10:30:00.226Z,69
2022-09-28T10:35:00.212Z,71
2022-09-28T10:40:00.221Z,75
2022-09-28T10:45:00.222Z,73
2022-09-28T10:50:00.205Z,73
2022-09-28T10:55:00.209Z,72
2022-09-28T11:00:00.294Z,72
2022-09-28T11:05:00.247Z,69
2022-09-28T11:10:00.222Z,71
2022-09-28T11:15:00.193Z,70
2022-09-28T11:20:00.211Z,68
2022-09-28T11:25:00.210Z,66
2022-09-28T11:30:00.211Z,69
2022-09-28T11:35:00.539Z,65
2022-09-28T11:40:00.203Z,64
2022-09-28T11:45:00.220Z,63
2022-09-28T11:50:00.222Z,64
2022-09-28T11:55:00.219Z,66
2022-09-28T12:00:00.276Z,63
2022-09-28T12:05:00.190Z,65
2022-09-28T12:10:00.216Z,65
2022-09-28T12:15:00.213Z,66
2022-09-28T12:20:00.261Z,65
2022-09-28T12:25:00.207Z,64
2022-09-28T12:30:00.237Z,59
2022-09-28T12:35:00.210Z,62
2022-09-28T12:40:00.607Z,64
2022-09-28T12:45:00.212Z,61
2022-09-28T12:55:00.300Z,56
2022-09-28T13:00:00.232Z,56
2022-09-28T13:05:00.192Z,58
2022-09-28T13:10:00.338Z,62
2022-09-28T13:15:00.228Z,67
2022-09-28T13:20:00.369Z,76
2022-09-28T13:25:00.197Z,72
2022-09-28T13:30:00.999Z,69
2022-09-28T13:35:00.217Z,71
2022-09-28T13:40:00.220Z,66
2022-09-28T13:45:00.250Z,66
2022-09-28T13:50:00.239Z,62
2022-09-28T13:55:00.206Z,64
2022-09-28T14:00:00.245Z,67
2022-09-28T14:05:00.206Z,63
2022-09-28T14:10:00.216Z,65
2022-09-28T14:15:00.219Z,63
2022-09-28T14:20:00.234Z,66
2022-09-28T14:25:00.230Z,65
2022-09-28T14:30:00.454Z,65
2022-09-28T14:35:00.187Z,66
2022-09-28T14:40:00.204Z,66
2022-09-28T14:45:05.240Z,66
2022-09-28T14:50:00.215Z,67
2022-09-28T14:55:00.258Z,68
2022-09-28T15:00:00.364Z,69
2022-09-28T15:05:00.477Z,70
2022-09-28T15:10:00.236Z,70
2022-09-28T15:15:00.196Z,70
2022-09-28T15:20:00.222Z,71
2022-09-28T15:25:02.702Z,71
2022-09-28T15:30:00.201Z,71
2022-09-28T15:35:00.195Z,73
2022-09-28T15:40:00.200Z,73
2022-09-28T15:45:00.187Z,75
2022-09-28T15:50:00.204Z,74
2022-09-28T15:55:00.199Z,74
2022-09-28T16:00:00.231Z,74
2022-09-28T16:05:00.187Z,75
2022-09-28T16:10:00.208Z,75
2022-09-28T16:15:00.159Z,75
2022-09-28T16:20:00.189Z,75
2022-09-28T16:25:00.183Z,76
2022-09-28T16:30:00.319Z,76
2022-09-28T16:35:00.199Z,75
2022-09-28T16:40:00.315Z,77
2022-09-28T16:45:00.201Z,77
2022-09-28T16:50:00.303Z,79
2022-09-28T16:55:00.207Z,79
2022-09-28T17:00:00.393Z,79
2022-09-28T17:05:00.192Z,80
2022-09-28T17:10:00.195Z,80
2022-09-28T17:15:00.197Z,81
2022-09-28T17:20:00.213Z,83
2022-09-28T17:25:00.209Z,83
2022-09-28T17:30:00.214Z,83
2022-09-28T17:35:19.973Z,83
2022-09-28T17:40:00.217Z,84
2022-09-28T17:45:00.213Z,85
2022-09-28T17:50:00.199Z,85
2022-09-28T17:55:00.178Z,85
2022-09-28T18:00:00.239Z,86
2022-09-28T18:05:00.204Z,87
2022-09-28T18:10:00.192Z,87
2022-09-28T18:15:00.204Z,88
2022-09-28T18:20:00.196Z,88
2022-09-28T18:25:00.195Z,87
2022-09-28T18:30:00.215Z,88
2022-09-28T18:35:00.200Z,88
2022-09-28T18:40:00.195Z,88
2022-09-28T18:45:00.218Z,89
2022-09-28T18:50:00.219Z,89
2022-09-28T18:55:00.191Z,89
2022-09-28T19:00:00.209Z,89
2022-09-28T19:05:00.185Z,89
2022-09-28T19:10:00.246Z,89
2022-09-28T19:15:00.194Z,89
2022-09-28T19:20:00.199Z,89
2022-09-28T19:25:00.217Z,90
2022-09-28T19:30:00.197Z,90
2022-09-28T19:35:00.265Z,90
2022-09-28T19:40:00.196Z,91
2022-09-28T19:45:00.182Z,91
2022-09-28T19:50:00.203Z,92
2022-09-28T19:55:00.217Z,94
2022-09-28T20:00:02.825Z,94
2022-09-28T20:05:00.200Z,94
2022-09-28T20:10:00.206Z,95
2022-09-28T20:15:00.173Z,94
2022-09-28T20:20:00.185Z,95
2022-09-28T20:25:00.181Z,95
2022-09-28T20:30:00.186Z,95
2022-09-28T20:35:00.174Z,95
2022-09-28T20:40:00.196Z,96
2022-09-28T20:45:00.186Z,96
2022-09-28T20:50:00.210Z,96
2022-09-28T20:55:00.163Z,96
2022-09-28T21:00:00.209Z,96
2022-09-28T21:05:00.199Z,96
2022-09-28T21:10:00.226Z,96
2022-09-28T21:15:04.889Z,96
2022-09-28T21:20:00.186Z,96
2022-09-28T21:25:00.173Z,96
2022-09-28T21:30:00.199Z,97
2022-09-28T21:35:00.184Z,97
2022-09-28T21:40:00.187Z,97
2022-09-28T21:45:00.185Z,97
2022-09-28T21:50:00.178Z,97
2022-09-28T21:55:00.184Z,97
2022-09-28T22:00:00.238Z,97
2022-09-28T22:05:00.217Z,97
2022-09-28T22:10:00.180Z,97
2022-09-28T22:15:00.190Z,97
2022-09-28T22:20:00.174Z,97
2022-09-28T22:25:00.174Z,97
2022-09-28T22:30:00.219Z,97
2022-09-28T22:35:00.187Z,97
2022-09-28T22:40:00.197Z,98
2022-09-28T22:45:00.169Z,98
2022-09-28T22:50:00.205Z,98
2022-09-28T22:55:00.183Z,98
2022-09-28T23:00:00.216Z,98
2022-09-28T23:05:00.169Z,98
2022-09-28T23:10:00.207Z,98
2022-09-28T23:15:00.179Z,99
2022-09-28T23:20:00.176Z,99
2022-09-28T23:25:00.183Z,99
2022-09-28T23:30:00.230Z,99
2022-09-28T23:35:00.185Z,99
2022-09-28T23:40:00.184Z,99
2022-09-28T23:45:00.174Z,99
2022-09-28T23:50:00.212Z,99
2022-09-28T23:55:00.159Z,99
